Time;durP1;ratioP1;P1;durP2;ratioP2;P2;SDS_P1;SDS_P2;PMS_P1;PMS_P2;Temp;Humidity;BMP_temperature;BMP_pressure;BME280_temperature;BME280_humidity;BME280_pressure;Samples;Min_cycle;Max_cycle;Signal;HPM_P1;HPM_P2
2022/11/30 00:02:10;;;;;;;156.27;119.50;;;20.10;48.00;;;;;;4773072;55;20997;-42
2022/11/30 00:07:11;;;;;;;154.82;118.50;;;20.10;48.00;;;;;;4722941;55;21012;-35
2022/11/30 00:12:12;;;;;;;154.43;117.62;;;20.10;48.00;;;;;;4887602;55;21015;-42
2022/11/30 00:17:13;;;;;;;154.93;119.55;;;20.10;48.00;;;;;;5040452;55;21072;-44
2022/11/30 00:22:14;;;;;;;152.30;115.60;;;20.10;48.00;;;;;;5106386;55;21519;-49
2022/11/30 00:27:15;;;;;;;157.23;119.37;;;20.10;48.00;;;;;;4693934;59;21069;-47
2022/11/30 00:32:16;;;;;;;147.82;113.85;;;20.10;48.00;;;;;;4729973;55;21090;-36
2022/11/30 00:37:16;;;;;;;151.57;114.62;;;20.10;47.90;;;;;;4813937;55;21075;-44
2022/11/30 00:42:17;;;;;;;148.85;116.05;;;20.10;48.00;;;;;;4695474;59;21075;-41
2022/11/30 00:47:18;;;;;;;148.93;111.70;;;20.10;47.90;;;;;;4846007;55;21024;-40
2022/11/30 00:52:19;;;;;;;148.55;115.97;;;20.10;47.90;;;;;;4804428;55;21631;-45
2022/11/30 00:57:19;;;;;;;150.07;114.22;;;20.10;48.00;;;;;;5095667;55;21080;-34
2022/11/30 01:02:20;;;;;;;147.25;115.07;;;20.10;47.90;;;;;;4748503;55;21059;-37
2022/11/30 01:07:21;;;;;;;139.10;105.85;;;20.10;48.00;;;;;;5000133;55;20998;-41
2022/11/30 01:12:22;;;;;;;145.93;112.32;;;20.10;48.00;;;;;;4695221;59;21044;-33
2022/11/30 01:17:23;;;;;;;142.52;109.65;;;20.10;47.90;;;;;;5075158;55;21040;-29
2022/11/30 01:22:23;;;;;;;146.60;112.32;;;20.10;47.90;;;;;;4917684;55;21023;-32
2022/11/30 01:27:24;;;;;;;141.75;108.90;;;20.10;47.90;;;;;;4694193;59;21483;-36
2022/11/30 01:32:26;;;;;;;142.85;107.97;;;20.10;47.90;;;;;;4695113;59;21499;-36
2022/11/30 01:37:31;;;;;;;139.32;108.22;;;20.10;47.80;;;;;;5169582;55;21063;-42
2022/11/30 01:42:32;;;;;;;137.93;106.22;;;20.10;47.90;;;;;;4936380;55;21016;-34
2022/11/30 01:47:38;;;;;;;141.00;106.57;;;20.10;47.90;;;;;;4712246;55;21011;-47
2022/11/30 01:52:51;;;;;;;132.82;103.72;;;20.10;47.90;;;;;;4693782;59;21514;-47
2022/11/30 01:58:15;;;;;;;136.52;106.37;;;20.10;47.80;;;;;;4694952;59;21036;-40
2022/11/30 02:04:10;;;;;;;135.73;103.55;;;20.10;47.80;;;;;;4694728;59;21060;-48
2022/11/30 02:09:12;;;;;;;137.55;104.40;;;20.10;47.80;;;;;;4764075;55;21067;-46
2022/11/30 02:14:30;;;;;;;134.37;103.15;;;20.10;47.80;;;;;;4695554;55;21060;-37
2022/11/30 02:27:41;;;;;;;136.98;104.85;;;20.10;47.80;;;;;;4695484;59;21058;-30
2022/11/30 02:33:02;;;;;;;131.73;101.12;;;20.10;47.70;;;;;;4777994;55;21080;-33
2022/11/30 02:38:04;;;;;;;126.68;97.68;;;20.10;47.80;;;;;;4695407;56;21039;-30
2022/11/30 02:43:06;;;;;;;126.62;99.30;;;20.10;47.80;;;;;;5025869;55;21063;-37
2022/11/30 02:48:19;;;;;;;127.07;99.07;;;20.10;47.70;;;;;;4694468;59;21112;-39
2022/11/30 02:53:20;;;;;;;126.65;98.68;;;20.10;47.70;;;;;;4929172;55;21060;-44
2022/11/30 02:58:21;;;;;;;125.78;95.68;;;20.10;47.70;;;;;;4873845;55;21116;-45
2022/11/30 03:03:22;;;;;;;123.05;95.40;;;20.10;47.70;;;;;;4695053;59;21032;-47
2022/11/30 03:08:23;;;;;;;119.68;92.47;;;20.10;47.70;;;;;;4788085;55;21020;-47
2022/11/30 03:13:24;;;;;;;122.95;95.22;;;20.10;47.70;;;;;;5130430;55;21481;-37
2022/11/30 03:18:24;;;;;;;115.62;91.53;;;20.10;47.70;;;;;;4695132;59;21004;-32
2022/11/30 03:23:25;;;;;;;112.50;88.82;;;20.10;47.60;;;;;;4694841;59;21550;-30
2022/11/30 03:28:26;;;;;;;115.47;91.10;;;20.10;47.60;;;;;;4908019;55;21020;-39
2022/11/30 03:33:27;;;;;;;117.60;90.62;;;20.10;47.80;;;;;;4774697;55;21000;-38
2022/11/30 03:38:28;;;;;;;113.55;88.62;;;20.10;47.60;;;;;;4941634;55;21009;-45
2022/11/30 03:43:29;;;;;;;111.35;88.35;;;20.00;47.60;;;;;;4694529;59;21099;-45
2022/11/30 03:48:30;;;;;;;110.80;88.25;;;20.10;47.60;;;;;;4695084;59;21028;-41
2022/11/30 03:53:31;;;;;;;108.07;85.57;;;20.10;47.60;;;;;;4805719;55;21060;-34
2022/11/30 03:58:32;;;;;;;103.80;82.28;;;20.10;47.60;;;;;;5169888;55;21008;-30
2022/11/30 04:03:33;;;;;;;107.93;85.12;;;20.10;47.60;;;;;;4971197;55;21040;-30
2022/11/30 04:08:36;;;;;;;110.12;83.53;;;20.10;47.60;;;;;;4695140;59;21020;-37
2022/11/30 04:13:38;;;;;;;99.78;80.90;;;20.00;47.60;;;;;;4833495;55;21518;-38
2022/11/30 04:18:39;;;;;;;103.07;78.70;;;20.10;47.70;;;;;;4694812;55;21012;-35
2022/11/30 04:23:40;;;;;;;103.57;80.30;;;20.10;47.70;;;;;;4938154;55;21459;-29
2022/11/30 04:28:42;;;;;;;98.43;78.40;;;20.00;47.70;;;;;;4694622;59;21537;-43
2022/11/30 04:33:43;;;;;;;96.43;77.40;;;20.10;47.90;;;;;;4774296;55;21521;-51
2022/11/30 04:38:44;;;;;;;98.90;78.37;;;20.00;47.80;;;;;;4711144;55;21072;-41
2022/11/30 04:43:45;;;;;;;99.05;77.78;;;20.10;48.30;;;;;;4835886;55;21000;-45
2022/11/30 04:48:45;;;;;;;95.00;74.82;;;20.10;48.00;;;;;;4834724;55;21031;-38
2022/11/30 04:53:46;;;;;;;99.90;75.97;;;20.10;48.00;;;;;;4801506;55;21438;-42
2022/11/30 04:58:47;;;;;;;95.72;74.55;;;20.00;48.00;;;;;;4958417;55;21091;-38
2022/11/30 05:03:48;;;;;;;97.32;75.47;;;20.10;48.10;;;;;;4694872;59;21008;-45
2022/11/30 05:08:48;;;;;;;91.60;72.97;;;20.00;48.00;;;;;;4985658;55;21036;-35
2022/11/30 05:13:49;;;;;;;92.78;73.03;;;20.00;48.20;;;;;;4753340;55;21024;-37
2022/11/30 05:18:50;;;;;;;89.68;68.87;;;20.00;48.10;;;;;;4953959;55;21075;-47
2022/11/30 05:23:51;;;;;;;89.72;70.70;;;20.00;48.10;;;;;;4694759;56;21534;-47
2022/11/30 05:28:52;;;;;;;89.00;71.72;;;20.10;48.30;;;;;;5003178;55;21470;-42
2022/11/30 05:33:53;;;;;;;86.87;69.55;;;20.00;48.80;;;;;;4760160;55;21008;-40
2022/11/30 05:38:54;;;;;;;85.70;68.70;;;20.00;48.20;;;;;;4798550;55;21004;-37
2022/11/30 05:43:56;;;;;;;84.90;65.53;;;20.00;48.10;;;;;;4694754;59;21008;-38
2022/11/30 05:48:57;;;;;;;85.95;68.87;;;20.00;48.10;;;;;;4860377;55;21568;-48
2022/11/30 05:53:58;;;;;;;83.62;68.62;;;20.10;48.30;;;;;;4830855;55;20992;-46
2022/11/30 05:58:59;;;;;;;82.35;66.07;;;20.10;48.20;;;;;;5027138;55;21542;-38
2022/11/30 06:04:03;;;;;;;81.03;64.65;;;20.00;48.60;;;;;;4948510;55;21072;-41
2022/11/30 06:09:03;;;;;;;79.82;63.58;;;20.00;48.20;;;;;;4742763;55;21106;-44
2022/11/30 06:14:04;;;;;;;82.62;64.15;;;20.00;48.80;;;;;;4928325;55;21004;-45
2022/11/30 06:19:05;;;;;;;81.53;64.57;;;20.00;48.10;;;;;;4782535;55;21024;-48
2022/11/30 06:24:07;;;;;;;74.53;60.12;;;20.00;48.10;;;;;;4738299;55;21135;-47
2022/11/30 06:29:09;;;;;;;79.37;63.20;;;20.00;48.10;;;;;;4694854;59;21007;-44
2022/11/30 06:34:10;;;;;;;78.85;62.15;;;20.00;48.70;;;;;;4694997;59;21621;-38
2022/11/30 06:39:12;;;;;;;75.43;60.58;;;20.00;48.70;;;;;;4984802;55;21079;-36
2022/11/30 06:44:12;;;;;;;77.45;60.60;;;20.00;48.10;;;;;;4819911;55;21133;-39
2022/11/30 06:49:13;;;;;;;75.95;60.88;;;20.00;48.10;;;;;;4774249;55;21052;-42
2022/11/30 06:54:14;;;;;;;73.30;59.45;;;20.00;48.10;;;;;;4694923;59;21090;-43
2022/11/30 06:59:15;;;;;;;77.03;61.33;;;20.00;48.00;;;;;;4695021;59;21020;-39
2022/11/30 07:04:16;;;;;;;74.32;59.38;;;20.00;48.00;;;;;;4765796;55;21092;-38
2022/11/30 07:09:17;;;;;;;75.05;59.15;;;20.00;48.00;;;;;;4911711;55;21570;-38
2022/11/30 07:14:18;;;;;;;73.47;58.83;;;20.00;48.00;;;;;;4735470;55;21451;-39
2022/11/30 07:19:19;;;;;;;73.20;58.42;;;20.00;48.00;;;;;;4860977;55;21063;-38
2022/11/30 07:29:39;;;;;;;71.90;57.90;;;20.00;48.00;;;;;;4695018;55;21092;-39
2022/11/30 07:34:40;;;;;;;74.93;58.97;;;20.00;47.90;;;;;;4719227;55;21556;-40
2022/11/30 07:39:41;;;;;;;71.10;57.17;;;20.00;47.90;;;;;;4841933;55;21020;-37
2022/11/30 07:44:44;;;;;;;72.32;57.42;;;20.00;47.90;;;;;;4694984;56;21028;-43
2022/11/30 07:49:44;;;;;;;73.97;59.15;;;20.00;47.90;;;;;;4694422;55;21135;-48
2022/11/30 07:54:45;;;;;;;81.20;63.22;;;20.00;47.90;;;;;;4734190;55;20996;-38
2022/11/30 07:59:46;;;;;;;76.85;60.15;;;20.00;47.80;;;;;;4817083;55;21547;-38
2022/11/30 08:04:47;;;;;;;80.90;64.90;;;20.00;47.80;;;;;;4999192;55;21071;-38
2022/11/30 08:09:48;;;;;;;79.90;62.28;;;20.00;47.90;;;;;;4782653;55;21016;-38
2022/11/30 08:14:48;;;;;;;77.15;61.45;;;20.00;47.80;;;;;;4694753;59;21004;-32
2022/11/30 08:19:49;;;;;;;80.00;62.10;;;20.00;47.80;;;;;;4971145;55;21075;-46
2022/11/30 08:24:50;;;;;;;79.25;59.85;;;20.00;47.80;;;;;;4920322;55;21076;-37
2022/11/30 08:29:51;;;;;;;81.55;61.70;;;20.10;47.90;;;;;;4696961;55;21636;-31
2022/11/30 08:34:51;;;;;;;85.12;62.03;;;20.10;48.00;;;;;;4712698;55;21072;-34
2022/11/30 08:39:52;;;;;;;84.72;62.67;;;20.20;48.10;;;;;;4895539;55;21016;-26
2022/11/30 08:44:53;;;;;;;86.97;63.47;;;20.20;48.10;;;;;;4693378;55;21077;-25
2022/11/30 08:49:55;;;;;;;82.28;62.03;;;20.30;48.30;;;;;;4700296;55;21098;-25
2022/11/30 08:54:59;;;;;;;95.50;68.05;;;20.30;48.30;;;;;;4698802;55;21509;-25
2022/11/30 09:00:00;;;;;;;89.03;67.72;;;20.30;48.00;;;;;;4721673;55;21580;-27
2022/11/30 09:05:01;;;;;;;89.65;68.40;;;20.30;48.00;;;;;;4714430;55;21568;-37
2022/11/30 09:10:02;;;;;;;92.15;67.53;;;20.30;48.60;;;;;;4777177;55;21056;-33
2022/11/30 09:15:04;;;;;;;97.15;74.03;;;20.30;48.00;;;;;;4807376;55;21008;-46
2022/11/30 09:20:06;;;;;;;91.12;69.53;;;20.30;47.90;;;;;;4821292;55;21067;-29
2022/11/30 09:25:09;;;;;;;96.30;75.18;;;20.40;47.90;;;;;;4694542;59;21564;-33
2022/11/30 09:30:10;;;;;;;97.60;76.43;;;20.40;47.90;;;;;;4724796;55;21067;-37
2022/11/30 09:35:11;;;;;;;110.00;81.10;;;20.40;48.20;;;;;;4763357;55;21051;-34
2022/11/30 09:40:14;;;;;;;109.78;83.70;;;20.40;48.00;;;;;;4846725;55;21076;-35
2022/11/30 09:45:24;;;;;;;106.40;82.82;;;20.40;47.70;;;;;;4694663;59;21000;-31
2022/11/30 09:50:29;;;;;;;110.47;85.03;;;20.40;47.60;;;;;;4768546;55;21131;-33
2022/11/30 09:55:39;;;;;;;117.75;90.12;;;20.40;47.50;;;;;;4794342;55;21048;-31
2022/11/30 10:00:40;;;;;;;118.78;90.20;;;20.40;47.40;;;;;;4789560;55;21012;-34
2022/11/30 10:06:02;;;;;;;126.75;92.43;;;20.40;47.20;;;;;;4694247;59;21083;-45
2022/11/30 10:14:27;;;;;;;132.70;97.40;;;20.40;47.40;;;;;;4693381;59;21576;-35
2022/11/30 10:24:30;;;;;;;134.93;99.37;;;20.40;47.40;;;;;;4773769;55;21021;-32
2022/11/30 10:29:34;;;;;;;135.85;102.38;;;20.40;47.60;;;;;;5046151;55;21547;-26
2022/11/30 10:34:35;;;;;;;149.02;110.85;;;20.40;47.70;;;;;;4738726;55;21044;-26
2022/11/30 10:39:45;;;;;;;135.82;105.05;;;20.40;47.70;;;;;;4832675;55;21562;-36
2022/11/30 10:45:09;;;;;;;280.33;114.50;;;20.50;47.90;;;;;;4801642;55;21512;-29
2022/11/30 10:50:14;;;;;;;270.45;110.70;;;20.50;48.30;;;;;;4740186;55;21032;-33
2022/11/30 10:55:20;;;;;;;224.68;108.37;;;20.60;48.70;;;;;;4737231;55;21000;-33
2022/11/30 11:00:21;;;;;;;271.33;115.45;;;20.70;49.40;;;;;;4747381;55;20992;-36
2022/11/30 11:05:29;;;;;;;237.90;110.65;;;20.70;49.80;;;;;;4871654;55;21012;-34
2022/11/30 11:10:48;;;;;;;277.65;113.88;;;20.70;50.10;;;;;;4984942;55;21481;-35
2022/11/30 11:15:58;;;;;;;273.85;113.32;;;20.70;50.10;;;;;;4878907;55;21433;-34
2022/11/30 11:21:15;;;;;;;242.37;114.50;;;20.80;50.30;;;;;;4697530;55;21040;-45
2022/11/30 11:26:17;;;;;;;;;;;20.80;50.60;;;;;;4698963;55;21128;-36
2022/11/30 11:31:39;;;;;;;219.73;113.03;;;20.90;50.60;;;;;;4856448;55;20117;-48
2022/11/30 11:36:40;;;;;;;204.50;115.15;;;20.80;50.60;;;;;;4792211;55;21517;-36
2022/11/30 11:41:41;;;;;;;202.13;118.80;;;20.90;50.80;;;;;;4694616;56;21509;-39
2022/11/30 11:48:38;;;;;;;203.45;120.82;;;20.90;50.80;;;;;;4870863;55;21120;-45
2022/11/30 11:53:49;;;;;;;232.32;133.15;;;20.90;50.70;;;;;;4812907;55;21004;-31
2022/11/30 12:05:45;;;;;;;244.98;135.85;;;21.00;50.90;;;;;;4777740;55;20980;-27
2022/11/30 12:10:57;;;;;;;247.60;143.70;;;21.00;50.70;;;;;;4701393;55;21064;-34
2022/11/30 12:18:59;;;;;;;261.65;143.27;;;21.00;50.70;;;;;;4722829;55;21462;-35
2022/11/30 12:24:20;;;;;;;263.02;146.18;;;21.00;50.90;;;;;;4768557;55;21044;-28
2022/11/30 12:29:42;;;;;;;273.80;149.65;;;21.10;50.90;;;;;;4733927;55;21076;-38
2022/11/30 12:35:14;;;;;;;264.02;149.60;;;21.10;50.80;;;;;;4765252;55;21019;-32
2022/11/30 12:40:55;;;;;;;252.77;151.00;;;21.10;50.50;;;;;;4738106;55;21052;-32
2022/11/30 12:48:08;;;;;;;245.77;147.25;;;21.10;50.60;;;;;;4830478;55;21064;-32
2022/11/30 12:53:42;;;;;;;242.57;147.32;;;21.10;50.60;;;;;;4694503;56;21012;-32
2022/11/30 12:59:36;;;;;;;243.95;144.70;;;21.10;50.80;;;;;;4741626;55;21012;-32
2022/11/30 13:05:00;;;;;;;225.10;142.27;;;21.10;50.70;;;;;;4784605;55;21080;-26
2022/11/30 13:11:05;;;;;;;233.93;145.07;;;21.10;51.00;;;;;;4762756;55;21530;-28
2022/11/30 13:16:08;;;;;;;215.75;138.75;;;21.10;50.80;;;;;;4732823;55;21486;-31
2022/11/30 13:21:38;;;;;;;221.75;144.30;;;21.10;50.50;;;;;;4693770;56;21040;-27
2022/11/30 13:26:55;;;;;;;215.57;141.45;;;21.00;50.10;;;;;;4851123;55;21032;-29
2022/11/30 13:32:13;;;;;;;218.52;141.75;;;20.90;50.00;;;;;;4723139;55;21008;-32
2022/11/30 13:37:21;;;;;;;205.07;139.18;;;20.90;49.70;;;;;;4742628;55;21064;-31
2022/11/30 13:42:43;;;;;;;217.05;142.37;;;20.90;49.50;;;;;;4759724;55;21052;-30
2022/11/30 13:47:56;;;;;;;207.30;141.70;;;20.90;49.50;;;;;;4693738;59;21081;-25
2022/11/30 13:54:08;;;;;;;209.37;142.50;;;20.80;49.30;;;;;;4694388;56;20984;-27
2022/11/30 14:01:34;;;;;;;211.57;144.48;;;20.80;49.20;;;;;;4924199;55;21016;-25
2022/11/30 14:06:58;;;;;;;;;;;20.80;49.10;;;;;;4707989;55;21545;-26
2022/11/30 14:12:38;;;;;;;208.52;143.45;;;20.70;48.90;;;;;;4844412;55;20291;-27
2022/11/30 14:17:39;;;;;;;201.40;142.43;;;20.70;48.70;;;;;;4701942;55;21569;-26
2022/11/30 14:22:42;;;;;;;197.82;140.12;;;20.80;49.00;;;;;;4694759;59;21000;-30
2022/11/30 14:27:44;;;;;;;198.80;141.45;;;20.80;49.10;;;;;;4710795;55;21577;-32
2022/11/30 14:32:57;;;;;;;198.62;141.30;;;20.80;49.20;;;;;;4768673;55;21036;-28
2022/11/30 14:37:59;;;;;;;190.05;137.62;;;20.80;49.40;;;;;;4718557;55;21004;-35
2022/11/30 14:43:01;;;;;;;192.55;137.82;;;20.70;49.30;;;;;;4714793;55;21515;-28
2022/11/30 14:48:17;;;;;;;194.70;140.90;;;20.70;49.40;;;;;;4709486;55;21112;-34
2022/11/30 14:54:06;;;;;;;185.85;135.52;;;20.70;49.40;;;;;;4694315;59;21550;-37
2022/11/30 14:59:36;;;;;;;186.68;134.85;;;20.60;49.50;;;;;;4735603;55;21008;-28
2022/11/30 15:04:37;;;;;;;192.00;137.07;;;20.60;49.50;;;;;;4755178;55;21008;-29
2022/11/30 15:09:41;;;;;;;181.05;132.95;;;20.60;49.50;;;;;;4752264;55;21091;-28
2022/11/30 15:15:05;;;;;;;185.90;135.48;;;20.60;49.50;;;;;;4950257;55;21466;-37
2022/11/30 15:20:24;;;;;;;186.90;134.10;;;20.50;49.40;;;;;;4695237;56;21004;-38
2022/11/30 15:25:38;;;;;;;181.37;133.65;;;20.50;49.50;;;;;;4695086;59;21486;-36
2022/11/30 15:30:42;;;;;;;177.40;133.68;;;20.50;49.50;;;;;;4892557;55;21003;-31
2022/11/30 15:35:46;;;;;;;182.57;133.45;;;20.50;49.50;;;;;;4742738;55;21004;-30
2022/11/30 15:40:51;;;;;;;177.18;132.23;;;20.50;49.50;;;;;;4735401;55;21556;-30
2022/11/30 15:45:57;;;;;;;176.48;134.85;;;20.50;49.50;;;;;;4749035;55;21497;-37
2022/11/30 15:50:59;;;;;;;184.73;134.48;;;20.40;49.50;;;;;;4719408;55;21072;-36
2022/11/30 15:56:08;;;;;;;177.62;131.27;;;20.40;49.40;;;;;;4826857;55;20992;-32
2022/11/30 16:01:15;;;;;;;174.77;128.62;;;20.40;49.50;;;;;;4695010;59;21119;-35
2022/11/30 16:06:18;;;;;;;;;;;20.40;49.50;;;;;;4738426;55;21509;-37
2022/11/30 16:11:19;;;;;;;174.93;127.12;;;20.40;49.50;;;;;;4695122;59;20295;-37
2022/11/30 16:16:24;;;;;;;177.62;130.20;;;20.40;49.50;;;;;;4984372;55;21087;-35
2022/11/30 16:21:25;;;;;;;171.40;127.28;;;20.40;49.50;;;;;;4694683;59;20997;-38
2022/11/30 16:26:26;;;;;;;177.40;130.82;;;20.40;49.40;;;;;;4816803;55;21004;-35
2022/11/30 16:31:27;;;;;;;173.10;128.32;;;20.40;49.40;;;;;;4859626;55;21474;-37
2022/11/30 16:36:29;;;;;;;164.75;124.18;;;20.40;49.40;;;;;;4819770;55;21000;-35
2022/11/30 16:41:30;;;;;;;175.90;128.50;;;20.40;49.40;;;;;;4723076;55;21462;-30
2022/11/30 16:46:31;;;;;;;168.93;125.68;;;20.40;50.10;;;;;;4700153;55;21049;-31
2022/11/30 16:51:35;;;;;;;171.48;127.82;;;20.40;49.50;;;;;;4694065;59;21011;-33
2022/11/30 16:56:36;;;;;;;174.82;128.18;;;20.40;49.40;;;;;;4991519;55;21490;-35
2022/11/30 17:01:43;;;;;;;169.40;128.55;;;20.40;49.50;;;;;;4750059;55;21076;-33
2022/11/30 17:06:44;;;;;;;;;;;20.40;49.40;;;;;;4739339;55;21498;-33
2022/11/30 17:11:49;;;;;;;171.90;124.30;;;20.40;49.40;;;;;;4906318;55;20157;-34
2022/11/30 17:16:50;;;;;;;172.05;129.70;;;20.40;49.40;;;;;;4805146;55;21545;-39
2022/11/30 17:21:50;;;;;;;166.45;127.40;;;20.30;49.30;;;;;;4702197;55;20992;-34
2022/11/30 17:26:51;;;;;;;167.48;122.15;;;20.40;49.30;;;;;;4712140;55;21019;-35
2022/11/30 17:31:52;;;;;;;173.30;130.75;;;20.30;49.30;;;;;;4715390;55;21537;-37
2022/11/30 17:36:55;;;;;;;172.05;129.75;;;20.40;49.40;;;;;;4791980;55;21584;-33
2022/11/30 17:41:56;;;;;;;166.40;125.75;;;20.30;49.30;;;;;;4695066;59;21546;-37
2022/11/30 17:46:57;;;;;;;166.27;126.07;;;20.30;49.80;;;;;;4833714;55;21020;-36
2022/11/30 17:51:57;;;;;;;169.23;126.10;;;20.30;49.30;;;;;;4744317;55;21541;-35
2022/11/30 17:56:58;;;;;;;168.48;125.68;;;20.30;49.20;;;;;;4786632;55;21506;-30
2022/11/30 18:01:59;;;;;;;163.52;122.78;;;20.30;49.20;;;;;;4739030;55;21020;-33
2022/11/30 18:07:00;;;;;;;166.25;126.82;;;20.30;49.50;;;;;;4701098;55;21063;-33
2022/11/30 18:12:00;;;;;;;167.70;127.93;;;20.30;49.30;;;;;;4714933;55;21038;-33
2022/11/30 18:17:01;;;;;;;164.77;124.40;;;20.40;49.30;;;;;;4761279;55;21044;-29
2022/11/30 18:22:02;;;;;;;165.45;123.72;;;20.30;49.30;;;;;;4857530;55;21460;-38
2022/11/30 18:27:03;;;;;;;161.07;122.75;;;20.30;49.30;;;;;;4694823;56;21043;-36
2022/11/30 18:32:04;;;;;;;167.10;127.47;;;20.30;49.30;;;;;;4894249;55;21016;-30
2022/11/30 18:37:05;;;;;;;162.80;124.50;;;20.30;49.30;;;;;;4933518;55;21533;-32
2022/11/30 18:42:06;;;;;;;166.02;126.30;;;20.30;49.90;;;;;;4694639;59;21075;-30
2022/11/30 18:47:07;;;;;;;158.63;121.95;;;20.30;49.30;;;;;;4754653;55;21502;-31
2022/11/30 18:52:08;;;;;;;168.40;128.07;;;20.30;49.30;;;;;;4897887;55;21036;-35
2022/11/30 18:57:09;;;;;;;163.85;124.00;;;20.30;49.30;;;;;;4832410;55;20976;-29
2022/11/30 19:02:10;;;;;;;158.70;123.43;;;20.30;49.30;;;;;;4779741;55;21044;-28
2022/11/30 19:07:11;;;;;;;155.05;122.93;;;20.30;49.30;;;;;;4832530;55;21481;-29
2022/11/30 19:12:12;;;;;;;165.73;122.87;;;20.30;49.30;;;;;;4807938;55;21008;-32
2022/11/30 19:17:13;;;;;;;159.48;121.97;;;20.30;49.30;;;;;;5039093;55;21199;-28
2022/11/30 19:22:14;;;;;;;165.48;125.38;;;20.30;49.30;;;;;;4939526;55;21466;-37
2022/11/30 19:27:14;;;;;;;160.12;122.90;;;20.30;49.30;;;;;;4790048;55;20996;-39
2022/11/30 19:32:15;;;;;;;158.07;123.87;;;20.30;49.30;;;;;;4754408;55;21501;-28
2022/11/30 19:37:16;;;;;;;159.73;123.62;;;20.30;49.30;;;;;;4695336;59;21546;-34
2022/11/30 19:42:17;;;;;;;160.93;124.82;;;20.30;49.40;;;;;;4809543;55;20984;-34
2022/11/30 19:47:18;;;;;;;161.05;121.93;;;20.30;49.30;;;;;;4694242;56;21001;-34
2022/11/30 19:52:19;;;;;;;161.68;123.57;;;20.30;49.30;;;;;;5062405;55;21079;-34
2022/11/30 19:57:20;;;;;;;166.25;125.43;;;20.30;49.90;;;;;;5032935;55;21995;-31
2022/11/30 20:02:21;;;;;;;160.85;124.87;;;20.30;49.30;;;;;;4695008;59;20996;-28
2022/11/30 20:07:21;;;;;;;164.23;124.18;;;20.30;49.40;;;;;;5029870;55;22170;-31
2022/11/30 20:12:22;;;;;;;155.43;118.37;;;20.30;49.40;;;;;;4695005;59;21048;-32
2022/11/30 20:17:23;;;;;;;162.93;123.57;;;20.30;49.40;;;;;;4703382;55;21075;-30
2022/11/30 20:22:24;;;;;;;156.02;118.20;;;20.30;49.40;;;;;;4772770;55;20996;-29
2022/11/30 20:27:25;;;;;;;160.73;122.45;;;20.30;49.40;;;;;;4826425;55;21112;-28
2022/11/30 20:32:26;;;;;;;148.87;115.90;;;20.30;49.40;;;;;;4781083;55;21048;-33
2022/11/30 20:37:27;;;;;;;156.07;119.07;;;20.30;49.40;;;;;;4906795;55;21529;-39
2022/11/30 20:42:31;;;;;;;153.12;118.05;;;20.30;49.40;;;;;;4797876;55;21036;-30
2022/11/30 20:47:34;;;;;;;152.25;116.53;;;20.30;49.40;;;;;;4694399;59;21036;-30
2022/11/30 20:52:35;;;;;;;150.52;118.95;;;20.30;49.40;;;;;;4786774;55;21077;-28
2022/11/30 20:57:36;;;;;;;150.07;116.72;;;20.30;49.40;;;;;;4695287;59;21009;-34
2022/11/30 21:02:37;;;;;;;154.87;119.07;;;20.30;49.30;;;;;;4755860;55;21549;-34
2022/11/30 21:07:37;;;;;;;151.32;117.10;;;20.30;49.30;;;;;;4747554;55;21024;-29
2022/11/30 21:12:38;;;;;;;146.75;113.90;;;20.30;49.60;;;;;;4695334;59;21103;-27
2022/11/30 21:17:39;;;;;;;149.75;116.20;;;20.30;49.40;;;;;;4714678;55;21008;-33
2022/11/30 21:22:40;;;;;;;148.65;115.43;;;20.30;49.30;;;;;;4873436;55;21040;-27
2022/11/30 21:27:41;;;;;;;139.88;110.20;;;20.30;49.30;;;;;;4815857;55;21115;-29
2022/11/30 21:32:42;;;;;;;146.68;112.32;;;20.20;49.30;;;;;;4729006;55;21064;-31
2022/11/30 21:37:42;;;;;;;141.52;109.78;;;20.20;49.20;;;;;;4822277;55;21064;-29
2022/11/30 21:42:43;;;;;;;145.75;114.07;;;20.30;49.30;;;;;;4695252;59;21020;-34
2022/11/30 21:47:44;;;;;;;144.05;111.65;;;20.20;49.20;;;;;;4803554;55;21482;-30
2022/11/30 21:52:45;;;;;;;139.65;108.35;;;20.20;49.10;;;;;;4736478;55;21553;-25
2022/11/30 21:57:46;;;;;;;136.07;108.30;;;20.20;49.10;;;;;;4725456;55;21000;-31
2022/11/30 22:02:47;;;;;;;135.57;106.68;;;20.20;49.20;;;;;;4721345;55;21016;-29
2022/11/30 22:07:48;;;;;;;139.68;108.12;;;20.20;49.10;;;;;;4840856;55;21565;-32
2022/11/30 22:12:48;;;;;;;138.93;107.90;;;20.20;49.10;;;;;;4829301;55;21004;-34
2022/11/30 22:17:51;;;;;;;137.35;106.00;;;20.20;49.00;;;;;;5049531;55;21007;-30
2022/11/30 22:22:51;;;;;;;133.30;102.78;;;20.20;49.00;;;;;;4695290;59;20968;-33
2022/11/30 22:27:52;;;;;;;128.85;100.93;;;20.20;49.00;;;;;;4705169;55;21056;-29
2022/11/30 22:32:53;;;;;;;126.82;100.97;;;20.20;48.90;;;;;;4694349;56;21461;-32
2022/11/30 22:37:54;;;;;;;122.43;97.20;;;20.20;48.90;;;;;;4868213;55;20989;-32
2022/11/30 22:42:55;;;;;;;125.10;97.22;;;20.20;48.90;;;;;;4697729;55;21052;-35
2022/11/30 22:47:56;;;;;;;125.82;98.82;;;20.20;48.80;;;;;;4753603;55;21044;-31
2022/11/30 22:52:56;;;;;;;122.15;95.87;;;20.20;48.90;;;;;;4769073;55;21068;-32
2022/11/30 22:57:57;;;;;;;121.43;95.93;;;20.20;48.90;;;;;;4752009;55;21024;-33
2022/11/30 23:02:58;;;;;;;117.40;93.05;;;20.20;48.80;;;;;;4954177;55;21012;-35
2022/11/30 23:07:59;;;;;;;116.93;94.40;;;20.20;48.80;;;;;;4694458;59;21028;-35
2022/11/30 23:12:59;;;;;;;114.12;90.47;;;20.20;48.70;;;;;;4764182;55;21491;-33
2022/11/30 23:18:00;;;;;;;112.43;88.37;;;20.20;48.70;;;;;;4788223;55;21454;-34
2022/11/30 23:23:01;;;;;;;116.20;89.97;;;20.20;48.60;;;;;;5015257;55;21426;-34
2022/11/30 23:28:02;;;;;;;115.15;90.47;;;20.20;48.60;;;;;;4712556;55;21016;-35
2022/11/30 23:33:03;;;;;;;103.87;83.68;;;20.20;49.30;;;;;;4695429;55;21024;-34
2022/11/30 23:38:03;;;;;;;108.95;88.12;;;20.20;48.60;;;;;;5121913;55;21057;-31
2022/11/30 23:43:04;;;;;;;106.68;84.53;;;20.20;48.70;;;;;;4772241;55;21083;-34
2022/11/30 23:48:05;;;;;;;102.25;83.95;;;20.20;48.50;;;;;;4912638;55;21537;-33
2022/11/30 23:53:06;;;;;;;104.53;80.43;;;20.20;48.60;;;;;;4864461;55;21048;-35
2022/11/30 23:58:07;;;;;;;105.03;82.25;;;20.20;48.50;;;;;;4698013;55;20991;-35
